Briary, Texas
Current Conditions -  °F | °C
As of 7:55 AM on Saturday 01 Nov 2014 (Local Time) from KT35 Reporting Station
Clear Clear  
Wind Chill: 40°   Ceiling: Unl
Heat Index: 40°   Visibility: 10mi
Dew Point: 37°   Wind: 3mph
Humidity: 91%   Direction: 360°N
Pressure: 30.4"   Gusts: NA
Location:  31.0981°N, 96.99°W
Report Text: KT35 011255Z AUTO 36003KT 10SM CLR 04/03 A3040 RMK AO2 T00430030
Loading
Personal Weather Stations






























Interactive Weather Map
Tropical Storm Tracking
New forecast layout! Learn more

10-Day Weather Forecast

Advertisements
Track Severe Weather on mobile